createdAt,value
2022-10-07T00:01:55.561Z,12.07
2022-10-07T00:06:59.054Z,10.35
2022-10-07T00:12:04.012Z,11.20
2022-10-07T00:17:07.640Z,12.63
2022-10-07T00:22:11.007Z,11.88
2022-10-07T00:27:16.068Z,11.30
2022-10-07T00:32:19.464Z,11.48
2022-10-07T00:37:22.778Z,13.15
2022-10-07T00:42:29.819Z,10.80
2022-10-07T00:47:35.538Z,12.43
2022-10-07T00:52:42.333Z,10.98
2022-10-07T00:57:49.978Z,11.98
2022-10-07T01:02:53.627Z,12.30
2022-10-07T01:07:59.429Z,11.23
2022-10-07T01:13:14.552Z,11.20
2022-10-07T01:18:22.870Z,11.40
2022-10-07T01:23:44.713Z,13.23
2022-10-07T01:28:52.869Z,12.38
2022-10-07T01:33:57.115Z,11.48
2022-10-07T01:39:04.530Z,11.63
2022-10-07T01:44:11.635Z,11.43
2022-10-07T01:49:15.217Z,11.48
2022-10-07T01:54:30.835Z,11.23
2022-10-07T01:59:53.129Z,11.80
2022-10-07T02:05:11.335Z,11.73
2022-10-07T02:10:22.527Z,10.00
2022-10-07T02:15:32.574Z,10.77
2022-10-07T02:20:38.879Z,10.73
2022-10-07T02:25:46.467Z,10.05
2022-10-07T02:30:55.693Z,10.15
2022-10-07T02:36:01.909Z,10.55
2022-10-07T02:41:11.377Z,10.52
2022-10-07T02:46:21.045Z,11.57
2022-10-07T02:51:29.410Z,9.55
2022-10-07T02:56:35.464Z,10.68
2022-10-07T03:01:45.459Z,10.60
2022-10-07T03:06:49.772Z,11.65
2022-10-07T03:11:53.254Z,12.73
2022-10-07T03:16:57.876Z,11.00
2022-10-07T03:22:02.420Z,10.95
2022-10-07T03:27:07.255Z,10.27
2022-10-07T03:32:12.464Z,10.10
2022-10-07T03:37:15.986Z,11.32
2022-10-07T03:42:19.575Z,9.63
2022-10-07T03:47:24.291Z,9.35
2022-10-07T03:52:27.744Z,10.65
2022-10-07T03:57:48.584Z,11.27
2022-10-07T04:02:53.311Z,12.63
2022-10-07T04:07:56.641Z,11.18
2022-10-07T04:12:59.905Z,11.25
2022-10-07T04:18:04.597Z,11.18
2022-10-07T04:23:08.020Z,13.00
2022-10-07T04:28:17.116Z,12.35
2022-10-07T04:33:24.415Z,10.27
2022-10-07T04:38:28.616Z,10.57
2022-10-07T04:43:34.041Z,10.70
2022-10-07T04:48:38.957Z,11.05
2022-10-07T04:53:42.261Z,9.30
2022-10-07T04:58:45.545Z,11.40
2022-10-07T05:03:50.253Z,10.00
2022-10-07T05:08:54.357Z,10.93
2022-10-07T05:13:58.387Z,10.13
2022-10-07T05:19:03.032Z,11.52
2022-10-07T05:24:06.668Z,11.32
2022-10-07T05:29:10.010Z,11.10
2022-10-07T05:34:15.526Z,12.80
2022-10-07T05:39:19.198Z,12.60
2022-10-07T05:44:22.526Z,12.45
2022-10-07T05:49:27.857Z,12.60
2022-10-07T05:54:31.398Z,14.27
2022-10-07T05:59:34.664Z,12.77
2022-10-07T06:04:39.304Z,12.68
2022-10-07T06:09:59.992Z,12.15
2022-10-07T06:15:03.514Z,11.43
2022-10-07T06:20:09.278Z,13.05
2022-10-07T06:25:12.599Z,13.00
2022-10-07T06:30:16.214Z,13.48
2022-10-07T06:35:21.070Z,13.68
2022-10-07T06:40:24.588Z,12.88
2022-10-07T06:45:28.228Z,11.95
2022-10-07T06:50:32.891Z,11.50
2022-10-07T06:55:37.743Z,11.68
2022-10-07T07:00:41.102Z,12.15
2022-10-07T07:05:47.079Z,11.20
2022-10-07T07:10:52.089Z,14.90
2022-10-07T07:15:56.681Z,11.85
2022-10-07T07:21:07.828Z,12.52
2022-10-07T07:26:11.198Z,13.80
2022-10-07T07:31:14.823Z,12.30
2022-10-07T07:36:22.414Z,12.35
2022-10-07T07:41:27.921Z,13.63
2022-10-07T07:46:36.230Z,14.60
2022-10-07T07:51:43.118Z,11.73
2022-10-07T07:56:46.426Z,12.85
2022-10-07T08:01:49.843Z,9.80
2022-10-07T08:06:55.590Z,11.68
2022-10-07T08:11:58.966Z,10.50
2022-10-07T08:17:02.497Z,10.90
2022-10-07T08:22:08.491Z,10.10
2022-10-07T08:27:11.787Z,9.52
2022-10-07T08:32:15.052Z,11.30
2022-10-07T08:37:20.986Z,10.73
2022-10-07T08:42:29.338Z,10.05
2022-10-07T08:47:38.859Z,12.05
2022-10-07T08:52:51.041Z,10.80
2022-10-07T08:58:11.768Z,10.30
2022-10-07T09:03:29.965Z,9.45
2022-10-07T09:08:42.553Z,8.82
2022-10-07T09:13:49.173Z,7.97
2022-10-07T09:18:56.097Z,6.22
2022-10-07T09:24:24.526Z,6.85
2022-10-07T09:29:30.965Z,7.05
2022-10-07T09:34:34.255Z,9.67
2022-10-07T09:39:39.502Z,6.28
2022-10-07T09:44:43.209Z,6.25
2022-10-07T09:49:51.484Z,6.65
2022-10-07T09:54:58.365Z,7.05
2022-10-07T10:00:22.456Z,6.45
2022-10-07T10:05:29.761Z,6.13
2022-10-07T10:10:35.869Z,6.53
2022-10-07T10:15:42.352Z,7.68
2022-10-07T10:20:46.538Z,6.10
2022-10-07T10:26:16.037Z,7.05
2022-10-07T10:31:25.625Z,6.05
2022-10-07T10:36:34.042Z,5.97
2022-10-07T10:41:45.325Z,5.30
2022-10-07T10:46:57.279Z,6.60
2022-10-07T10:52:20.074Z,5.93
2022-10-07T10:57:38.080Z,5.03
2022-10-07T11:03:00.659Z,6.18
2022-10-07T11:08:11.386Z,5.00
2022-10-07T11:13:29.727Z,5.53
2022-10-07T11:18:38.037Z,6.32
2022-10-07T11:23:50.271Z,6.22
2022-10-07T11:28:57.088Z,5.90
2022-10-07T11:34:16.275Z,5.60
2022-10-07T11:39:20.134Z,6.10
2022-10-07T11:44:34.303Z,6.43
2022-10-07T11:49:43.214Z,5.25
2022-10-07T11:54:53.625Z,5.82
2022-10-07T12:00:00.892Z,4.72
2022-10-07T12:05:05.196Z,4.78
2022-10-07T12:10:22.203Z,5.47
2022-10-07T12:15:31.096Z,5.60
2022-10-07T12:20:46.660Z,5.97
2022-10-07T12:25:51.433Z,5.75
2022-10-07T12:30:58.018Z,5.78
2022-10-07T12:36:27.697Z,5.18
2022-10-07T12:41:34.445Z,3.72
2022-10-07T12:46:49.490Z,5.05
2022-10-07T12:51:55.138Z,4.75
2022-10-07T12:56:58.682Z,4.32
2022-10-07T13:02:27.098Z,4.43
2022-10-07T13:08:03.348Z,3.95
2022-10-07T13:13:09.286Z,3.83
2022-10-07T13:18:20.311Z,4.03
2022-10-07T13:23:27.497Z,3.88
2022-10-07T13:28:39.283Z,2.90
2022-10-07T13:33:44.587Z,3.70
2022-10-07T13:38:49.203Z,3.28
2022-10-07T13:43:55.985Z,4.07
2022-10-07T13:49:01.498Z,4.10
2022-10-07T13:54:07.908Z,3.90
2022-10-07T13:59:18.422Z,4.55
2022-10-07T14:04:26.155Z,4.75
2022-10-07T14:09:45.105Z,5.68
2022-10-07T14:14:51.668Z,4.30
2022-10-07T14:19:59.561Z,5.18
2022-10-07T14:25:05.398Z,4.50
2022-10-07T14:31:01.477Z,5.25
2022-10-07T14:36:17.449Z,4.72
